createdAt,value
2023-02-12T00:01:53.034Z,38.67
2023-02-12T00:05:55.021Z,43.25
2023-02-12T00:09:57.040Z,31.67
2023-02-12T00:13:59.021Z,32.20
2023-02-12T00:18:00.850Z,35.58
2023-02-12T00:22:02.653Z,33.85
2023-02-12T00:26:09.183Z,31.92
2023-02-12T00:30:12.033Z,32.22
2023-02-12T00:34:13.555Z,28.83
2023-02-12T00:38:16.323Z,30.23
2023-02-12T00:42:18.157Z,35.33
2023-02-12T00:46:21.321Z,31.83
2023-02-12T00:50:22.824Z,32.17
2023-02-12T00:54:24.540Z,36.22
2023-02-12T00:58:26.136Z,31.02
2023-02-12T01:02:28.357Z,31.45
2023-02-12T01:06:29.911Z,27.33
2023-02-12T01:10:31.764Z,31.35
2023-02-12T01:14:33.290Z,26.98
2023-02-12T01:18:36.018Z,26.77
2023-02-12T01:22:38.769Z,29.77
2023-02-12T01:26:41.282Z,29.50
2023-02-12T01:30:43.339Z,28.40
2023-02-12T01:34:44.811Z,31.77
2023-02-12T01:38:46.369Z,35.60
2023-02-12T01:42:47.871Z,32.22
2023-02-12T01:46:55.686Z,30.50
2023-02-12T01:50:57.957Z,32.83
2023-02-12T01:55:02.459Z,31.90
2023-02-12T01:59:04.472Z,30.63
2023-02-12T02:03:06.078Z,34.92
2023-02-12T02:07:08.721Z,34.85
2023-02-12T02:11:28.810Z,32.88
2023-02-12T02:15:31.760Z,35.25
2023-02-12T02:19:54.672Z,37.05
2023-02-12T02:24:02.376Z,32.55
2023-02-12T02:32:20.088Z,30.30
2023-02-12T02:36:35.888Z,30.45
2023-02-12T02:41:24.308Z,33.30
2023-02-12T02:45:37.103Z,31.88
2023-02-12T02:49:48.326Z,34.42
2023-02-12T02:53:55.932Z,30.65
2023-02-12T03:02:09.088Z,34.03
2023-02-12T03:06:14.330Z,35.03
2023-02-12T03:10:22.053Z,33.83
2023-02-12T03:14:28.683Z,33.53
2023-02-12T03:19:11.637Z,37.35
2023-02-12T03:23:18.460Z,34.30
2023-02-12T03:27:31.440Z,34.40
2023-02-12T03:32:05.023Z,43.33
2023-02-12T03:36:35.973Z,33.53
2023-02-12T03:40:41.796Z,30.73
2023-02-12T03:44:58.635Z,34.80
2023-02-12T03:49:08.031Z,36.22
2023-02-12T03:53:09.655Z,29.10
2023-02-12T03:57:15.813Z,35.25
2023-02-12T04:01:18.822Z,36.42
2023-02-12T04:05:26.149Z,29.85
2023-02-12T04:09:30.819Z,30.67
2023-02-12T04:14:03.529Z,31.00
2023-02-12T04:18:12.448Z,31.85
2023-02-12T04:22:19.847Z,32.75
2023-02-12T04:26:51.175Z,42.28
2023-02-12T04:31:02.086Z,36.35
2023-02-12T04:35:14.223Z,35.08
2023-02-12T04:39:21.048Z,37.60
2023-02-12T04:43:35.344Z,32.63
2023-02-12T04:47:38.548Z,35.75
2023-02-12T04:51:40.083Z,31.95
2023-02-12T04:55:41.954Z,34.67
2023-02-12T04:59:44.025Z,31.33
2023-02-12T05:03:45.773Z,31.05
2023-02-12T05:07:47.329Z,34.45
2023-02-12T05:11:49.172Z,35.30
2023-02-12T05:15:50.747Z,29.70
2023-02-12T05:19:52.319Z,31.15
2023-02-12T05:23:54.156Z,33.47
2023-02-12T05:27:57.291Z,29.80
2023-02-12T05:31:59.561Z,39.65
2023-02-12T05:36:11.979Z,39.97
2023-02-12T05:40:13.897Z,37.08
2023-02-12T05:44:15.483Z,39.75
2023-02-12T05:48:16.943Z,40.83
2023-02-12T05:52:18.735Z,43.30
2023-02-12T05:56:25.341Z,43.28
2023-02-12T06:00:26.783Z,47.45
2023-02-12T06:04:29.115Z,44.38
2023-02-12T06:08:31.047Z,41.58
2023-02-12T06:12:33.094Z,49.75
2023-02-12T06:16:35.312Z,49.15
2023-02-12T06:20:40.005Z,41.08
2023-02-12T06:24:41.580Z,41.08
2023-02-12T06:28:43.348Z,41.92
2023-02-12T06:32:49.980Z,40.70
2023-02-12T06:36:51.565Z,49.95
2023-02-12T06:40:53.344Z,51.33
2023-02-12T06:44:54.800Z,52.80
2023-02-12T06:48:57.923Z,54.33
2023-02-12T06:52:59.896Z,45.00
2023-02-12T06:57:01.768Z,35.83
2023-02-12T07:01:15.359Z,36.65
2023-02-12T07:05:17.225Z,37.78
2023-02-12T07:09:19.057Z,31.65
2023-02-12T07:13:20.552Z,34.25
2023-02-12T07:17:22.029Z,36.45
2023-02-12T07:21:23.621Z,34.13
2023-02-12T07:25:35.155Z,30.95
2023-02-12T07:29:37.117Z,34.55
2023-02-12T07:33:39.462Z,34.25
2023-02-12T07:37:41.459Z,34.08
2023-02-12T07:41:43.441Z,38.00
2023-02-12T07:45:45.066Z,37.08
2023-02-12T07:49:46.692Z,37.30
2023-02-12T07:53:48.922Z,39.63
2023-02-12T07:57:50.893Z,37.92
2023-02-12T08:01:53.383Z,33.75
2023-02-12T08:05:55.622Z,38.92
2023-02-12T08:09:57.709Z,37.90
2023-02-12T08:14:01.734Z,37.42
2023-02-12T08:18:03.268Z,36.60
2023-02-12T08:22:06.555Z,39.03
2023-02-12T08:26:11.671Z,39.78
2023-02-12T08:30:15.444Z,41.53
2023-02-12T08:34:24.852Z,40.80
2023-02-12T08:38:26.539Z,42.38
2023-02-12T08:42:28.233Z,39.45
2023-02-12T08:46:35.052Z,37.47
2023-02-12T08:50:36.729Z,46.00
2023-02-12T08:54:38.604Z,43.72
2023-02-12T08:58:40.334Z,48.60
2023-02-12T09:02:41.914Z,45.58
2023-02-12T09:06:44.124Z,44.17
2023-02-12T09:10:45.956Z,46.35
2023-02-12T09:14:47.739Z,49.92
2023-02-12T09:18:49.207Z,48.30
2023-02-12T09:22:50.912Z,46.58
2023-02-12T09:26:52.426Z,44.85
2023-02-12T09:30:54.030Z,46.15
2023-02-12T09:34:55.933Z,42.58
2023-02-12T09:38:59.663Z,44.03
2023-02-12T09:43:18.321Z,42.60
2023-02-12T09:47:47.644Z,41.92
2023-02-12T09:51:54.232Z,44.65
2023-02-12T09:55:56.675Z,35.70
2023-02-12T10:00:02.744Z,30.70
2023-02-12T10:04:05.549Z,29.13
2023-02-12T10:08:44.599Z,22.70
2023-02-12T10:13:04.779Z,27.65
2023-02-12T10:17:29.678Z,21.98
2023-02-12T10:21:37.090Z,16.98
2023-02-12T10:25:41.619Z,15.85
2023-02-12T10:29:57.218Z,14.30
2023-02-12T10:33:59.133Z,13.85
2023-02-12T13:04:29.038Z,13.43
2023-02-12T13:08:45.712Z,9.20
2023-02-12T13:13:32.150Z,9.77
2023-02-12T13:18:44.346Z,8.23
2023-02-12T13:27:44.665Z,11.57
2023-02-12T13:32:50.023Z,8.35
2023-02-12T13:54:28.705Z,6.35
2023-02-12T14:04:29.125Z,10.65
2023-02-12T14:19:22.904Z,8.18
2023-02-12T14:28:31.197Z,8.07
2023-02-12T14:34:08.346Z,6.80
2023-02-12T14:56:32.027Z,7.65
2023-02-12T16:01:47.434Z,6.05
2023-02-12T16:05:49.964Z,5.45
2023-02-12T16:09:53.985Z,6.72
2023-02-12T16:14:04.382Z,6.15
2023-02-12T16:18:06.163Z,8.73
2023-02-12T16:22:09.963Z,6.65
2023-02-12T16:26:23.226Z,5.05
2023-02-12T16:30:39.163Z,7.30
2023-02-12T16:34:40.774Z,6.88
2023-02-12T16:38:57.070Z,7.68
2023-02-12T16:43:19.881Z,13.25
2023-02-12T16:47:23.443Z,7.95
2023-02-12T16:51:29.660Z,8.57
2023-02-12T16:55:32.069Z,9.45
2023-02-12T16:59:34.927Z,8.60
2023-02-12T17:03:37.431Z,7.85
2023-02-12T17:07:39.088Z,7.80
2023-02-12T17:11:42.544Z,8.98
2023-02-12T17:15:50.123Z,12.32
2023-02-12T17:19:53.404Z,8.32
2023-02-12T17:23:55.390Z,7.90
2023-02-12T17:27:57.241Z,10.07
2023-02-12T17:31:58.808Z,9.25
2023-02-12T17:36:00.713Z,15.63
2023-02-12T17:40:02.638Z,14.73
2023-02-12T17:44:04.373Z,18.10
2023-02-12T17:48:06.117Z,12.85
2023-02-12T17:52:07.722Z,13.15
2023-02-12T17:56:13.336Z,13.68
2023-02-12T18:00:15.623Z,11.90
2023-02-12T18:04:17.263Z,9.95
2023-02-12T18:08:19.093Z,10.63
2023-02-12T18:12:20.675Z,9.63
2023-02-12T18:16:24.526Z,11.07
2023-02-12T18:20:26.384Z,9.85
2023-02-12T18:24:28.229Z,10.48
2023-02-12T18:28:29.799Z,13.00
2023-02-12T18:32:31.388Z,12.05
2023-02-12T18:36:33.417Z,10.10
2023-02-12T18:40:35.044Z,10.75
2023-02-12T18:44:38.065Z,14.25
2023-02-12T18:48:40.050Z,11.98
2023-02-12T18:52:43.318Z,12.07
2023-02-12T18:56:46.782Z,13.90
2023-02-12T19:00:48.825Z,12.55
2023-02-12T19:04:50.723Z,13.40
2023-02-12T19:08:56.769Z,11.27
2023-02-12T19:13:11.883Z,14.10
2023-02-12T19:17:13.474Z,11.48
2023-02-12T19:21:18.986Z,12.55
2023-02-12T19:25:20.505Z,14.93
2023-02-12T19:29:22.139Z,17.05
2023-02-12T19:33:23.599Z,14.30
2023-02-12T19:37:25.115Z,16.75
2023-02-12T19:41:29.242Z,14.18
2023-02-12T19:45:32.976Z,13.80
2023-02-12T19:49:34.921Z,15.80
2023-02-12T19:53:36.385Z,12.63
2023-02-12T19:57:39.270Z,12.88
2023-02-12T20:01:41.214Z,15.07
2023-02-12T20:05:46.812Z,15.25
2023-02-12T20:09:51.167Z,14.55
2023-02-12T20:13:52.843Z,14.73
2023-02-12T20:17:54.593Z,12.77
2023-02-12T20:21:57.884Z,16.58
2023-02-12T20:25:59.340Z,15.77
2023-02-12T20:30:01.228Z,13.63
2023-02-12T20:34:07.646Z,16.10
2023-02-12T20:38:11.320Z,14.05
2023-02-12T20:42:12.853Z,15.93
2023-02-12T20:46:17.723Z,18.88
2023-02-12T20:50:19.410Z,17.92
2023-02-12T20:54:21.201Z,16.92
2023-02-12T20:58:22.783Z,19.48
2023-02-12T21:02:24.350Z,16.63
2023-02-12T21:06:26.225Z,23.23
2023-02-12T21:10:29.687Z,20.90
2023-02-12T21:14:31.256Z,24.60
2023-02-12T21:18:33.186Z,23.52
2023-02-12T21:22:35.378Z,40.63
2023-02-12T21:26:37.070Z,27.25
2023-02-12T21:30:38.607Z,24.70
2023-02-12T21:34:40.863Z,19.85
2023-02-12T21:38:45.210Z,20.52
2023-02-12T21:42:46.763Z,18.90
2023-02-12T21:46:48.256Z,22.40
2023-02-12T21:50:49.744Z,18.00
2023-02-12T21:54:51.792Z,19.58
2023-02-12T21:58:53.974Z,14.55
2023-02-12T22:02:56.321Z,19.48
2023-02-12T22:06:59.696Z,19.08
2023-02-12T22:11:03.524Z,17.25
2023-02-12T22:15:06.547Z,16.73
2023-02-12T22:19:08.171Z,19.42
2023-02-12T22:23:19.234Z,20.65
2023-02-12T22:27:20.797Z,19.17
2023-02-12T22:31:26.188Z,18.70
2023-02-12T22:49:49.994Z,34.78
2023-02-12T22:54:05.683Z,24.15
2023-02-12T22:58:23.801Z,21.38
2023-02-12T23:02:25.282Z,18.98
2023-02-12T23:06:29.476Z,22.10
2023-02-12T23:10:31.339Z,25.35
2023-02-12T23:14:35.976Z,22.25
2023-02-12T23:18:37.405Z,21.95
2023-02-12T23:22:39.365Z,22.65
2023-02-12T23:26:40.921Z,22.25
2023-02-12T23:30:42.757Z,24.63
2023-02-12T23:34:44.303Z,24.33
2023-02-12T23:38:45.806Z,24.48
2023-02-12T23:42:47.676Z,24.10
2023-02-12T23:46:52.103Z,26.48
2023-02-12T23:50:53.989Z,23.55
2023-02-12T23:54:56.853Z,25.20
2023-02-12T23:58:59.497Z,27.17
